createdAt,value
2023-05-21T00:01:45.796Z,17.30
2023-05-21T00:04:49.098Z,17.25
2023-05-21T00:07:53.520Z,17.14
2023-05-21T00:10:56.589Z,17.11
2023-05-21T00:13:59.555Z,17.09
2023-05-21T00:17:02.823Z,17.11
2023-05-21T00:20:07.506Z,17.14
2023-05-21T00:23:10.758Z,17.14
2023-05-21T00:26:14.005Z,17.15
2023-05-21T00:29:18.593Z,17.15
2023-05-21T00:32:21.567Z,17.18
2023-05-21T00:35:24.547Z,17.22
2023-05-21T00:38:28.052Z,17.20
2023-05-21T00:41:35.424Z,17.23
2023-05-21T00:44:39.444Z,17.25
2023-05-21T00:47:44.223Z,17.25
2023-05-21T00:50:47.414Z,17.27
2023-05-21T00:53:53.235Z,17.23
2023-05-21T00:56:56.521Z,17.22
2023-05-21T00:59:59.898Z,17.22
2023-05-21T01:03:05.532Z,17.15
2023-05-21T01:06:10.011Z,17.10
2023-05-21T01:09:13.128Z,17.10
2023-05-21T01:12:17.859Z,17.00
2023-05-21T01:15:21.188Z,17.02
2023-05-21T01:18:25.005Z,17.00
2023-05-21T01:21:30.583Z,16.93
2023-05-21T01:24:34.817Z,16.92
2023-05-21T01:27:38.132Z,16.82
2023-05-21T01:30:42.711Z,16.79
2023-05-21T01:33:50.397Z,16.73
2023-05-21T01:37:01.557Z,16.69
2023-05-21T01:40:23.989Z,16.65
2023-05-21T01:43:29.726Z,16.59
2023-05-21T01:46:36.689Z,16.56
2023-05-21T01:49:40.499Z,16.50
2023-05-21T01:52:54.910Z,16.41
2023-05-21T01:55:59.480Z,16.29
2023-05-21T01:59:02.945Z,16.23
2023-05-21T02:02:06.192Z,16.16
2023-05-21T02:05:09.862Z,16.16
2023-05-21T02:08:15.127Z,16.08
2023-05-21T02:11:20.902Z,16.03
2023-05-21T02:14:25.432Z,15.97
2023-05-21T02:17:35.073Z,15.95
2023-05-21T02:20:38.510Z,15.91
2023-05-21T02:23:42.674Z,15.86
2023-05-21T02:26:47.248Z,15.86
2023-05-21T02:29:50.576Z,15.83
2023-05-21T02:32:53.854Z,15.71
2023-05-21T02:35:57.314Z,15.65
2023-05-21T02:39:02.020Z,15.69
2023-05-21T02:42:05.420Z,15.63
2023-05-21T02:45:12.976Z,15.63
2023-05-21T02:48:18.455Z,15.64
2023-05-21T02:51:21.763Z,15.59
2023-05-21T02:54:25.083Z,15.52
2023-05-21T02:57:28.448Z,15.55
2023-05-21T03:00:31.562Z,15.46
2023-05-21T03:03:36.555Z,15.39
2023-05-21T03:06:40.406Z,15.38
2023-05-21T03:09:43.459Z,15.28
2023-05-21T03:12:47.227Z,15.29
2023-05-21T03:15:56.218Z,15.26
2023-05-21T03:18:59.444Z,15.21
2023-05-21T03:22:04.005Z,15.21
2023-05-21T03:25:11.031Z,15.22
2023-05-21T03:28:14.950Z,15.28
2023-05-21T03:31:26.750Z,15.33
2023-05-21T03:34:47.502Z,15.38
2023-05-21T03:37:52.197Z,15.38
2023-05-21T03:40:55.274Z,15.40
2023-05-21T03:43:58.697Z,15.47
2023-05-21T03:47:06.361Z,15.50
2023-05-21T03:50:12.460Z,15.57
2023-05-21T03:53:15.857Z,15.55
2023-05-21T03:56:19.439Z,15.57
2023-05-21T03:59:23.512Z,15.61
2023-05-21T04:02:28.361Z,15.65
2023-05-21T04:05:31.771Z,15.77
2023-05-21T04:08:35.169Z,15.86
2023-05-21T04:11:38.342Z,15.90
2023-05-21T04:14:41.860Z,15.98
2023-05-21T04:17:47.515Z,15.98
2023-05-21T04:20:50.670Z,16.06
2023-05-21T04:23:54.331Z,16.18
2023-05-21T04:27:17.940Z,16.21
2023-05-21T04:30:22.220Z,16.22
2023-05-21T04:33:25.873Z,16.30
2023-05-21T04:36:29.190Z,16.52
2023-05-21T04:39:33.183Z,16.73
2023-05-21T04:42:36.623Z,16.76
2023-05-21T04:45:40.257Z,16.82
2023-05-21T04:48:45.240Z,16.88
2023-05-21T04:51:49.626Z,16.92
2023-05-21T04:54:54.147Z,17.00
2023-05-21T04:57:57.547Z,17.02
2023-05-21T05:01:03.551Z,17.10
2023-05-21T05:04:07.231Z,17.22
2023-05-21T05:07:10.775Z,17.25
2023-05-21T05:10:14.373Z,17.29
2023-05-21T05:13:17.442Z,17.42
2023-05-21T05:16:25.694Z,17.49
2023-05-21T05:19:35.227Z,17.53
2023-05-21T05:22:38.644Z,17.65
2023-05-21T05:25:41.934Z,17.74
2023-05-21T05:28:46.466Z,17.78
2023-05-21T05:31:50.230Z,17.93
2023-05-21T05:34:53.671Z,18.14
2023-05-21T05:37:57.062Z,18.24
2023-05-21T05:41:00.326Z,18.50
2023-05-21T05:44:04.461Z,18.70
2023-05-21T05:47:11.895Z,18.98
2023-05-21T05:50:16.002Z,19.18
2023-05-21T05:53:19.318Z,19.33
2023-05-21T05:56:22.639Z,19.68
2023-05-21T05:59:25.818Z,19.86
2023-05-21T06:02:33.671Z,20.00
2023-05-21T06:05:36.934Z,19.55
2023-05-21T06:08:40.673Z,19.94
2023-05-21T06:11:44.006Z,20.18
2023-05-21T06:14:49.081Z,20.39
2023-05-21T06:17:52.381Z,20.57
2023-05-21T06:20:55.956Z,20.68
2023-05-21T06:24:00.175Z,20.79
2023-05-21T06:27:05.165Z,20.98
2023-05-21T06:30:09.704Z,20.95
2023-05-21T06:33:15.405Z,21.00
2023-05-21T06:36:18.960Z,21.29
2023-05-21T06:39:25.673Z,21.52
2023-05-21T06:42:28.756Z,21.51
2023-05-21T06:45:51.798Z,21.49
2023-05-21T06:49:14.148Z,21.56
2023-05-21T06:52:18.105Z,21.37
2023-05-21T06:55:21.797Z,21.18
2023-05-21T06:58:37.669Z,21.12
2023-05-21T07:01:42.660Z,21.27
2023-05-21T07:04:46.158Z,21.38
2023-05-21T07:07:49.284Z,21.27
2023-05-21T07:10:52.595Z,21.12
2023-05-21T07:13:58.829Z,21.23
2023-05-21T07:17:02.195Z,21.21
2023-05-21T07:20:10.112Z,21.44
2023-05-21T07:23:15.269Z,21.49
2023-05-21T07:29:36.849Z,21.88
2023-05-21T07:32:40.132Z,21.86
2023-05-21T07:35:43.621Z,21.90
2023-05-21T07:38:46.942Z,21.93
2023-05-21T07:41:50.166Z,22.12
2023-05-21T07:44:53.503Z,22.24
2023-05-21T07:47:57.399Z,22.30
2023-05-21T07:51:01.879Z,22.43
2023-05-21T07:54:05.299Z,22.55
2023-05-21T07:57:11.763Z,22.49
2023-05-21T08:00:44.076Z,22.56
2023-05-21T08:03:48.130Z,22.61
2023-05-21T08:06:51.655Z,22.71
2023-05-21T08:09:54.721Z,22.68
2023-05-21T08:12:58.028Z,22.65
2023-05-21T08:16:01.177Z,22.77
2023-05-21T08:19:04.623Z,22.78
2023-05-21T08:22:08.300Z,22.68
2023-05-21T08:25:13.563Z,22.77
2023-05-21T08:28:16.727Z,22.73
2023-05-21T08:31:19.718Z,22.62
2023-05-21T08:34:23.409Z,22.66
2023-05-21T08:37:37.400Z,22.76
2023-05-21T08:40:55.169Z,22.62
2023-05-21T08:44:02.136Z,23.01
2023-05-21T08:47:08.088Z,23.11
2023-05-21T08:50:14.050Z,22.80
2023-05-21T08:53:27.356Z,22.98
2023-05-21T08:56:36.053Z,23.06
2023-05-21T08:59:44.241Z,23.08
2023-05-21T09:02:56.507Z,22.93
2023-05-21T09:06:01.999Z,23.19
2023-05-21T09:09:37.011Z,23.18
2023-05-21T09:12:42.785Z,23.20
2023-05-21T09:15:47.301Z,23.16
2023-05-21T09:18:51.977Z,23.26
2023-05-21T09:22:03.882Z,23.34
2023-05-21T09:25:10.690Z,23.48
2023-05-21T09:28:15.869Z,23.46
2023-05-21T09:31:19.105Z,23.56
2023-05-21T09:34:25.323Z,23.65
2023-05-21T09:37:28.374Z,23.43
2023-05-21T09:40:31.988Z,23.67
2023-05-21T09:43:36.974Z,23.75
2023-05-21T09:46:41.939Z,23.84
2023-05-21T09:49:45.763Z,23.83
2023-05-21T09:52:50.811Z,23.81
2023-05-21T09:55:58.132Z,23.82
2023-05-21T09:59:04.598Z,23.87
2023-05-21T10:02:22.915Z,24.02
2023-05-21T10:05:31.098Z,24.10
2023-05-21T10:08:39.579Z,24.08
2023-05-21T10:11:45.081Z,24.12
2023-05-21T10:14:54.218Z,24.05
2023-05-21T10:17:59.247Z,24.28
2023-05-21T10:21:07.269Z,24.34
2023-05-21T10:24:11.416Z,24.47
2023-05-21T10:27:14.712Z,24.88
2023-05-21T10:30:18.680Z,24.90
2023-05-21T10:33:24.427Z,25.07
2023-05-21T10:36:33.538Z,25.18
2023-05-21T10:39:39.036Z,25.46
2023-05-21T10:43:23.389Z,25.57
2023-05-21T10:47:11.426Z,25.71
2023-05-21T10:50:35.720Z,25.79
2023-05-21T10:54:11.296Z,26.15
2023-05-21T10:57:29.298Z,26.39
2023-05-21T11:01:00.078Z,26.35
2023-05-21T11:04:04.986Z,26.56
2023-05-21T11:07:08.629Z,26.80
2023-05-21T11:10:40.837Z,26.94
2023-05-21T11:13:51.230Z,27.02
2023-05-21T11:16:55.070Z,27.17
2023-05-21T11:20:05.374Z,27.23
2023-05-21T11:23:11.446Z,27.36
2023-05-21T11:26:19.241Z,27.26
2023-05-21T11:29:33.634Z,27.36
2023-05-21T11:32:41.403Z,27.38
2023-05-21T11:35:50.258Z,27.64
2023-05-21T11:39:10.947Z,27.56
2023-05-21T11:42:39.512Z,27.47
2023-05-21T11:45:47.332Z,27.39
2023-05-21T11:48:52.867Z,27.38
2023-05-21T11:51:56.940Z,27.19
2023-05-21T11:55:00.207Z,27.25
2023-05-21T11:58:03.799Z,27.49
2023-05-21T12:01:07.240Z,27.47
2023-05-21T12:04:13.718Z,27.67
2023-05-21T12:07:19.417Z,27.58
2023-05-21T12:10:24.329Z,27.50
2023-05-21T12:13:28.601Z,27.47
2023-05-21T12:16:32.888Z,27.55
2023-05-21T12:19:38.197Z,27.59
2023-05-21T12:22:45.075Z,27.52
2023-05-21T12:25:48.561Z,27.49
2023-05-21T12:28:56.329Z,27.57
2023-05-21T12:32:01.397Z,27.44
2023-05-21T12:35:04.908Z,27.52
2023-05-21T12:38:09.728Z,27.49
2023-05-21T12:41:12.711Z,27.38
2023-05-21T12:44:15.794Z,27.53
2023-05-21T12:47:22.765Z,27.58
2023-05-21T12:50:26.754Z,27.65
2023-05-21T12:53:44.605Z,27.76
2023-05-21T12:56:47.540Z,27.54
2023-05-21T12:59:51.661Z,27.37
2023-05-21T13:02:57.165Z,27.34
2023-05-21T13:06:01.324Z,27.13
2023-05-21T13:09:04.759Z,27.08
2023-05-21T13:12:08.299Z,27.22
2023-05-21T13:15:11.536Z,27.13
2023-05-21T13:18:16.090Z,27.22
2023-05-21T13:21:19.238Z,27.21
2023-05-21T13:24:22.329Z,27.12
2023-05-21T13:27:25.721Z,26.98
2023-05-21T13:30:28.956Z,26.91
2023-05-21T13:33:32.371Z,26.74
2023-05-21T13:36:36.144Z,26.64
2023-05-21T13:39:39.328Z,26.91
2023-05-21T13:42:43.573Z,26.59
2023-05-21T13:45:49.621Z,26.37
2023-05-21T13:48:53.224Z,26.32
2023-05-21T13:51:58.284Z,26.21
2023-05-21T13:55:01.712Z,26.27
2023-05-21T13:58:04.759Z,26.31
2023-05-21T14:01:08.093Z,26.18
2023-05-21T14:04:12.301Z,26.18
2023-05-21T14:07:15.668Z,26.19
2023-05-21T14:10:18.890Z,26.23
2023-05-21T14:13:22.383Z,26.26
2023-05-21T14:16:27.643Z,26.15
2023-05-21T14:19:30.759Z,25.95
2023-05-21T14:22:34.047Z,25.89
2023-05-21T14:25:37.674Z,25.93
2023-05-21T14:28:41.908Z,25.92
2023-05-21T14:31:46.484Z,25.77
2023-05-21T14:34:49.690Z,25.77
2023-05-21T14:37:54.192Z,25.84
2023-05-21T14:40:57.794Z,25.77
2023-05-21T14:44:01.020Z,25.76
2023-05-21T14:47:04.344Z,25.74
2023-05-21T14:50:09.213Z,25.60
2023-05-21T14:53:12.675Z,25.57
2023-05-21T14:56:15.901Z,25.51
2023-05-21T14:59:19.072Z,25.49
2023-05-21T15:02:22.662Z,25.52
2023-05-21T15:10:08.489Z,25.47
2023-05-21T15:13:11.560Z,25.43
2023-05-21T15:16:15.697Z,25.39
2023-05-21T15:19:20.705Z,25.41
2023-05-21T15:22:23.718Z,25.37
2023-05-21T15:25:26.883Z,25.44
2023-05-21T15:28:29.973Z,25.46
2023-05-21T15:31:33.395Z,25.36
2023-05-21T15:34:36.471Z,25.25
2023-05-21T15:37:43.799Z,25.22
2023-05-21T15:40:47.789Z,25.36
2023-05-21T15:43:50.803Z,25.37
2023-05-21T15:46:55.029Z,25.26
2023-05-21T15:50:00.520Z,25.28
2023-05-21T15:53:04.846Z,25.25
2023-05-21T15:56:10.505Z,25.16
2023-05-21T15:59:14.285Z,25.12
2023-05-21T16:02:17.410Z,25.12
2023-05-21T16:05:20.708Z,24.94
2023-05-21T16:08:23.940Z,24.89
2023-05-21T16:11:27.936Z,24.84
2023-05-21T16:14:31.331Z,24.74
2023-05-21T16:17:34.379Z,24.70
2023-05-21T16:25:19.887Z,24.43
2023-05-21T16:28:24.613Z,24.37
2023-05-21T16:31:27.940Z,24.35
2023-05-21T16:34:31.236Z,24.37
2023-05-21T16:37:34.648Z,24.51
2023-05-21T16:40:38.003Z,24.36
2023-05-21T16:43:41.133Z,24.24
2023-05-21T16:46:44.270Z,24.33
2023-05-21T16:49:47.562Z,24.21
2023-05-21T16:52:50.898Z,24.19
2023-05-21T16:55:54.379Z,24.13
2023-05-21T16:58:57.434Z,24.10
2023-05-21T17:02:00.790Z,24.16
2023-05-21T17:05:04.917Z,24.10
2023-05-21T17:08:10.927Z,23.94
2023-05-21T17:11:14.124Z,23.87
2023-05-21T17:14:33.144Z,23.81
2023-05-21T17:17:37.240Z,23.72
2023-05-21T17:20:40.684Z,23.69
2023-05-21T17:23:46.584Z,23.62
2023-05-21T17:26:49.715Z,23.52
2023-05-21T17:29:53.114Z,23.42
2023-05-21T17:32:56.249Z,23.33
2023-05-21T17:35:59.375Z,23.27
2023-05-21T17:39:02.456Z,23.19
2023-05-21T17:42:06.044Z,23.08
2023-05-21T17:45:09.798Z,23.01
2023-05-21T17:48:13.044Z,22.94
2023-05-21T17:51:16.573Z,22.86
2023-05-21T17:54:19.953Z,22.77
2023-05-21T17:57:23.476Z,22.65
2023-05-21T18:00:26.753Z,22.51
2023-05-21T18:03:30.390Z,22.41
2023-05-21T18:06:33.717Z,22.29
2023-05-21T18:09:36.869Z,22.18
2023-05-21T18:12:39.866Z,22.01
2023-05-21T18:15:43.137Z,21.91
2023-05-21T18:18:46.725Z,21.83
2023-05-21T18:21:49.906Z,21.74
2023-05-21T18:24:52.752Z,21.59
2023-05-21T18:27:56.494Z,21.52
2023-05-21T18:31:06.471Z,21.43
2023-05-21T18:34:09.842Z,21.43
2023-05-21T18:37:13.291Z,21.33
2023-05-21T18:40:18.263Z,21.20
2023-05-21T18:43:22.040Z,21.06
2023-05-21T18:46:25.625Z,20.99
2023-05-21T18:49:33.983Z,20.90
2023-05-21T18:52:37.180Z,20.78
2023-05-21T18:55:40.384Z,20.73
2023-05-21T18:58:44.073Z,20.65
2023-05-21T19:01:47.391Z,20.62
2023-05-21T19:04:50.685Z,20.62
2023-05-21T19:07:53.794Z,20.61
2023-05-21T19:10:57.488Z,20.53
2023-05-21T19:14:01.616Z,20.46
2023-05-21T19:17:05.213Z,20.42
2023-05-21T19:20:09.541Z,20.35
2023-05-21T19:23:12.924Z,20.35
2023-05-21T19:26:17.056Z,20.31
2023-05-21T19:29:21.685Z,20.25
2023-05-21T19:32:25.624Z,20.21
2023-05-21T19:35:32.696Z,20.15
2023-05-21T19:38:36.274Z,20.11
2023-05-21T19:41:40.635Z,20.10
2023-05-21T19:44:44.148Z,20.04
2023-05-21T19:47:47.443Z,20.01
2023-05-21T19:50:51.359Z,19.99
2023-05-21T19:53:54.514Z,19.90
2023-05-21T19:56:58.111Z,19.83
2023-05-21T20:00:01.655Z,19.77
2023-05-21T20:03:07.170Z,19.73
2023-05-21T20:06:13.207Z,19.70
2023-05-21T20:09:18.229Z,19.64
2023-05-21T20:12:21.923Z,19.62
2023-05-21T20:18:42.818Z,19.50
2023-05-21T20:21:45.894Z,19.45
2023-05-21T20:24:48.978Z,19.45
2023-05-21T20:27:52.127Z,19.45
2023-05-21T20:31:02.452Z,19.45
2023-05-21T20:34:07.892Z,19.41
2023-05-21T20:37:11.693Z,19.34
2023-05-21T20:40:15.076Z,19.34
2023-05-21T20:43:21.906Z,19.33
2023-05-21T20:46:25.918Z,19.28
2023-05-21T20:49:29.086Z,19.24
2023-05-21T20:52:32.423Z,19.15
2023-05-21T20:55:35.928Z,19.20
2023-05-21T20:58:40.117Z,19.16
2023-05-21T21:01:43.330Z,19.01
2023-05-21T21:04:50.803Z,19.10
2023-05-21T21:07:55.876Z,19.12
2023-05-21T21:10:59.333Z,19.14
2023-05-21T21:14:03.006Z,19.14
2023-05-21T21:17:06.221Z,19.17
2023-05-21T21:20:10.916Z,19.08
2023-05-21T21:23:13.961Z,19.01
2023-05-21T21:26:17.816Z,19.02
2023-05-21T21:29:21.122Z,19.03
2023-05-21T21:32:26.291Z,19.00
2023-05-21T21:35:29.613Z,18.93
2023-05-21T21:38:32.722Z,18.85
2023-05-21T21:41:35.977Z,18.72
2023-05-21T21:44:39.588Z,18.61
2023-05-21T21:47:42.741Z,18.43
2023-05-21T21:50:46.426Z,18.36
2023-05-21T21:53:49.810Z,18.34
2023-05-21T21:56:53.016Z,18.23
2023-05-21T21:59:56.291Z,18.22
2023-05-21T22:02:59.769Z,18.26
2023-05-21T22:06:03.081Z,18.18
2023-05-21T22:09:07.731Z,18.15
2023-05-21T22:12:12.173Z,18.12
2023-05-21T22:15:20.510Z,18.08
2023-05-21T22:18:38.748Z,18.04
2023-05-21T22:21:46.446Z,17.90
2023-05-21T22:24:51.290Z,17.82
2023-05-21T22:27:54.871Z,17.81
2023-05-21T22:30:59.155Z,17.73
2023-05-21T22:34:02.264Z,17.67
2023-05-21T22:37:06.386Z,17.56
2023-05-21T22:40:10.742Z,17.52
2023-05-21T22:43:14.481Z,17.52
2023-05-21T22:46:17.885Z,17.53
2023-05-21T22:49:20.910Z,17.54
2023-05-21T22:52:24.464Z,17.51
2023-05-21T22:55:27.728Z,17.45
2023-05-21T22:58:32.665Z,17.38
2023-05-21T23:01:38.259Z,17.35
2023-05-21T23:04:44.809Z,17.25
2023-05-21T23:07:48.004Z,17.24
2023-05-21T23:10:51.008Z,17.28
2023-05-21T23:13:54.068Z,17.20
2023-05-21T23:17:02.403Z,17.14
2023-05-21T23:20:07.560Z,17.03
2023-05-21T23:23:11.681Z,16.99
2023-05-21T23:26:14.919Z,16.94
2023-05-21T23:29:18.392Z,16.85
2023-05-21T23:32:21.624Z,16.78
2023-05-21T23:35:24.755Z,16.72
2023-05-21T23:38:28.095Z,16.62
2023-05-21T23:41:31.495Z,16.55
2023-05-21T23:44:34.507Z,16.66
2023-05-21T23:47:37.708Z,16.62
2023-05-21T23:50:40.923Z,16.47
2023-05-21T23:53:44.172Z,16.26
2023-05-21T23:56:47.217Z,16.03
2023-05-21T23:59:50.155Z,16.03
